createdAt,value
2023-03-25T00:00:21.228Z,9.82
2023-03-25T00:02:53.047Z,9.81
2023-03-25T00:05:23.481Z,9.76
2023-03-25T00:07:54.180Z,9.65
2023-03-25T00:10:22.863Z,9.67
2023-03-25T00:12:52.907Z,9.67
2023-03-25T00:15:23.857Z,9.65
2023-03-25T00:17:52.566Z,9.56
2023-03-25T00:20:21.519Z,9.60
2023-03-25T00:22:50.235Z,9.58
2023-03-25T00:25:20.718Z,9.53
2023-03-25T00:27:51.184Z,9.52
2023-03-25T00:30:22.321Z,9.53
2023-03-25T00:32:52.870Z,9.56
2023-03-25T00:35:24.179Z,9.49
2023-03-25T00:37:57.713Z,9.31
2023-03-25T00:40:28.508Z,9.33
2023-03-25T00:42:58.032Z,9.23
2023-03-25T00:45:28.160Z,9.32
2023-03-25T00:47:57.174Z,9.33
2023-03-25T00:50:26.379Z,9.25
2023-03-25T00:52:55.251Z,9.19
2023-03-25T00:55:24.123Z,9.24
2023-03-25T00:57:52.884Z,9.21
2023-03-25T01:00:21.878Z,9.20
2023-03-25T01:02:54.353Z,9.07
2023-03-25T01:05:23.123Z,9.17
2023-03-25T01:07:53.270Z,9.14
2023-03-25T01:10:22.321Z,9.08
2023-03-25T01:12:51.042Z,9.10
2023-03-25T01:15:20.432Z,9.05
2023-03-25T01:17:49.238Z,9.07
2023-03-25T01:20:19.687Z,9.07
2023-03-25T01:22:48.441Z,9.04
2023-03-25T01:25:17.281Z,9.06
2023-03-25T01:27:45.977Z,9.11
2023-03-25T01:30:16.620Z,9.11
2023-03-25T01:32:46.068Z,9.13
2023-03-25T01:35:14.936Z,8.99
2023-03-25T01:37:46.916Z,9.08
2023-03-25T01:40:21.716Z,9.10
2023-03-25T01:42:51.029Z,9.02
2023-03-25T01:45:30.841Z,9.11
2023-03-25T01:48:11.428Z,9.16
2023-03-25T01:50:46.324Z,9.08
2023-03-25T01:53:17.381Z,9.16
2023-03-25T01:55:47.905Z,9.21
2023-03-25T01:58:20.372Z,9.20
2023-03-25T02:00:52.025Z,9.30
2023-03-25T02:03:25.509Z,9.38
2023-03-25T02:06:03.911Z,9.39
2023-03-25T02:08:39.781Z,9.45
2023-03-25T02:11:10.317Z,9.46
2023-03-25T02:13:41.559Z,9.40
2023-03-25T02:16:28.358Z,9.47
2023-03-25T02:19:47.737Z,9.47
2023-03-25T02:23:08.696Z,9.45
2023-03-25T02:26:21.296Z,9.46
2023-03-25T02:29:02.239Z,9.43
2023-03-25T02:31:54.186Z,9.46
2023-03-25T02:34:57.781Z,9.48
2023-03-25T02:38:13.559Z,9.51
2023-03-25T02:40:58.709Z,9.47
2023-03-25T02:43:33.785Z,9.43
2023-03-25T02:46:09.848Z,9.44
2023-03-25T02:48:46.204Z,9.42
2023-03-25T02:51:22.561Z,9.38
2023-03-25T02:53:56.426Z,9.35
2023-03-25T02:56:29.506Z,9.28
2023-03-25T02:58:59.094Z,9.21
2023-03-25T03:01:29.103Z,9.18
2023-03-25T03:03:58.496Z,9.19
2023-03-25T03:06:29.585Z,9.14
2023-03-25T03:09:28.637Z,9.04
2023-03-25T03:12:22.075Z,9.01
2023-03-25T03:15:13.118Z,9.07
2023-03-25T03:17:51.582Z,9.03
2023-03-25T03:20:33.154Z,8.98
2023-03-25T03:23:11.077Z,8.99
2023-03-25T03:25:52.843Z,9.00
2023-03-25T03:28:32.043Z,8.97
2023-03-25T03:31:08.724Z,8.94
2023-03-25T03:33:50.790Z,8.94
2023-03-25T03:36:26.622Z,8.84
2023-03-25T03:39:02.325Z,8.93
2023-03-25T03:41:37.464Z,8.93
2023-03-25T03:44:10.098Z,8.95
2023-03-25T03:46:46.001Z,8.93
2023-03-25T03:49:20.035Z,8.95
2023-03-25T03:51:54.523Z,8.99
2023-03-25T03:54:29.381Z,9.02
2023-03-25T03:57:04.375Z,9.06
2023-03-25T03:59:47.763Z,9.11
2023-03-25T04:02:27.500Z,9.08
2023-03-25T04:05:00.907Z,9.08
2023-03-25T04:07:39.204Z,9.14
2023-03-25T04:10:16.785Z,9.20
2023-03-25T04:12:53.864Z,9.23
2023-03-25T04:15:23.271Z,9.24
2023-03-25T04:17:52.082Z,9.22
2023-03-25T04:20:29.981Z,9.26
2023-03-25T04:22:58.806Z,9.32
2023-03-25T04:25:27.722Z,9.38
2023-03-25T04:27:59.047Z,9.42
2023-03-25T04:30:29.656Z,9.46
2023-03-25T04:33:00.680Z,9.43
2023-03-25T04:35:33.194Z,9.38
2023-03-25T04:38:02.334Z,9.43
2023-03-25T04:40:31.559Z,9.43
2023-03-25T04:43:01.863Z,9.46
2023-03-25T04:45:30.776Z,9.49
2023-03-25T04:47:59.616Z,9.46
2023-03-25T04:50:31.698Z,9.43
2023-03-25T04:53:01.341Z,9.46
2023-03-25T04:55:30.211Z,9.43
2023-03-25T04:58:00.584Z,9.42
2023-03-25T05:00:29.594Z,9.43
2023-03-25T05:03:01.987Z,9.43
2023-03-25T05:05:30.823Z,9.40
2023-03-25T05:07:59.785Z,9.43
2023-03-25T05:10:30.528Z,9.35
2023-03-25T05:13:07.022Z,9.34
2023-03-25T05:15:39.786Z,9.42
2023-03-25T05:18:10.735Z,9.43
2023-03-25T05:20:39.999Z,9.32
2023-03-25T05:23:12.225Z,9.37
2023-03-25T05:25:41.473Z,9.46
2023-03-25T05:28:14.274Z,9.47
2023-03-25T05:30:46.898Z,9.51
2023-03-25T05:33:19.195Z,9.46
2023-03-25T05:35:49.407Z,9.52
2023-03-25T05:38:19.150Z,9.49
2023-03-25T05:40:48.632Z,9.55
2023-03-25T05:43:22.940Z,9.56
2023-03-25T05:45:52.027Z,9.57
2023-03-25T05:48:21.015Z,9.58
2023-03-25T05:50:49.725Z,9.67
2023-03-25T05:53:18.350Z,9.62
2023-03-25T05:55:51.346Z,9.68
2023-03-25T05:58:25.193Z,9.65
2023-03-25T06:00:54.673Z,9.61
2023-03-25T06:03:26.252Z,9.52
2023-03-25T06:05:56.905Z,9.55
2023-03-25T06:08:27.089Z,9.47
2023-03-25T06:11:00.771Z,9.46
2023-03-25T06:13:34.537Z,9.43
2023-03-25T06:16:04.095Z,9.42
2023-03-25T06:18:34.501Z,9.26
2023-03-25T06:21:04.224Z,9.22
2023-03-25T06:23:36.060Z,9.23
2023-03-25T06:26:05.546Z,9.23
2023-03-25T06:28:35.773Z,9.17
2023-03-25T06:31:09.268Z,9.17
2023-03-25T06:33:43.157Z,9.22
2023-03-25T06:36:15.577Z,9.27
2023-03-25T06:38:45.915Z,9.37
2023-03-25T06:41:21.065Z,9.51
2023-03-25T06:43:59.781Z,9.47
2023-03-25T06:46:47.420Z,9.47
2023-03-25T06:49:25.941Z,9.47
2023-03-25T06:51:57.056Z,9.54
2023-03-25T06:54:27.501Z,9.64
2023-03-25T06:56:56.570Z,9.61
2023-03-25T06:59:27.245Z,9.68
2023-03-25T07:01:56.041Z,9.64
2023-03-25T07:04:33.437Z,9.79
2023-03-25T07:07:03.697Z,9.90
2023-03-25T07:09:33.528Z,10.00
2023-03-25T07:12:02.383Z,10.08
2023-03-25T07:14:32.623Z,10.19
2023-03-25T07:17:01.340Z,10.22
2023-03-25T07:19:30.066Z,10.35
2023-03-25T07:21:58.774Z,10.46
2023-03-25T07:24:27.932Z,10.51
2023-03-25T07:26:56.731Z,10.47
2023-03-25T07:29:28.473Z,10.56
2023-03-25T07:31:58.939Z,10.50
2023-03-25T07:34:28.019Z,10.45
2023-03-25T07:36:56.960Z,10.29
2023-03-25T07:39:26.259Z,10.16
2023-03-25T07:41:55.870Z,10.15
2023-03-25T07:44:44.528Z,10.15
2023-03-25T07:47:14.603Z,10.21
2023-03-25T07:49:44.148Z,10.23
2023-03-25T07:52:12.780Z,10.24
2023-03-25T07:54:41.692Z,10.20
2023-03-25T07:57:10.396Z,10.31
2023-03-25T07:59:39.071Z,10.40
2023-03-25T08:02:08.504Z,10.47
2023-03-25T08:04:39.274Z,10.54
2023-03-25T08:07:08.694Z,10.58
2023-03-25T08:09:37.717Z,10.73
2023-03-25T08:12:07.193Z,10.77
2023-03-25T08:14:36.183Z,10.91
2023-03-25T08:17:06.710Z,10.99
2023-03-25T08:19:37.232Z,10.92
2023-03-25T08:22:05.990Z,10.90
2023-03-25T08:24:35.900Z,10.82
2023-03-25T08:27:13.925Z,10.80
2023-03-25T08:29:45.256Z,10.64
2023-03-25T08:32:14.108Z,10.40
2023-03-25T08:34:44.290Z,10.20
2023-03-25T08:37:13.874Z,10.09
2023-03-25T08:39:48.010Z,9.97
2023-03-25T08:42:16.831Z,9.82
2023-03-25T08:44:45.819Z,9.69
2023-03-25T08:47:14.582Z,9.58
2023-03-25T08:49:44.818Z,9.58
2023-03-25T08:52:13.885Z,9.49
2023-03-25T08:54:42.946Z,9.38
2023-03-25T08:57:11.890Z,9.36
2023-03-25T08:59:41.141Z,9.27
2023-03-25T09:02:12.723Z,9.32
2023-03-25T09:04:41.579Z,9.35
2023-03-25T09:07:20.491Z,9.35
2023-03-25T09:10:04.249Z,9.35
2023-03-25T09:12:33.517Z,9.29
2023-03-25T09:15:02.303Z,9.14
2023-03-25T09:17:31.015Z,9.06
2023-03-25T09:20:00.227Z,8.88
2023-03-25T09:22:30.326Z,8.90
2023-03-25T09:24:59.197Z,8.91
2023-03-25T09:27:27.952Z,8.98
2023-03-25T09:29:57.243Z,9.12
2023-03-25T09:32:26.861Z,9.24
2023-03-25T09:34:55.564Z,9.32
2023-03-25T09:37:25.929Z,9.40
2023-03-25T09:39:56.546Z,9.55
2023-03-25T09:42:41.513Z,9.48
2023-03-25T09:45:27.441Z,9.59
2023-03-25T09:48:04.234Z,9.87
2023-03-25T09:50:37.469Z,10.17
2023-03-25T09:53:19.485Z,10.37
2023-03-25T09:55:51.797Z,10.36
2023-03-25T09:58:35.964Z,10.32
2023-03-25T10:01:27.848Z,10.28
2023-03-25T10:04:31.245Z,10.09
2023-03-25T10:07:21.965Z,10.07
2023-03-25T10:10:00.878Z,9.98
2023-03-25T10:12:46.377Z,10.28
2023-03-25T10:15:28.100Z,10.51
2023-03-25T10:18:28.593Z,10.64
2023-03-25T10:21:08.264Z,10.92
2023-03-25T10:23:43.978Z,11.39
2023-03-25T10:26:21.791Z,11.53
2023-03-25T10:28:58.173Z,11.73
2023-03-25T10:31:34.334Z,12.08
2023-03-25T10:34:08.077Z,12.39
2023-03-25T10:36:44.274Z,12.31
2023-03-25T10:39:20.268Z,12.12
2023-03-25T10:41:54.299Z,11.94
2023-03-25T10:44:29.042Z,11.76
2023-03-25T10:47:05.947Z,11.74
2023-03-25T10:49:37.783Z,12.10
2023-03-25T10:52:07.183Z,12.16
2023-03-25T10:54:41.423Z,12.29
2023-03-25T10:57:18.933Z,12.86
2023-03-25T11:00:02.278Z,13.12
2023-03-25T11:02:33.330Z,13.41
2023-03-25T11:05:08.245Z,14.09
2023-03-25T11:07:41.919Z,14.55
2023-03-25T11:10:21.737Z,14.67
2023-03-25T11:12:58.499Z,14.87
2023-03-25T11:15:34.790Z,14.71
2023-03-25T11:18:12.735Z,14.47
2023-03-25T11:20:49.259Z,13.93
2023-03-25T11:23:28.993Z,13.41
2023-03-25T11:26:13.533Z,13.09
2023-03-25T11:28:46.292Z,12.61
2023-03-25T11:31:21.516Z,12.44
2023-03-25T11:34:15.601Z,12.22
2023-03-25T11:36:55.222Z,12.44
2023-03-25T11:39:33.763Z,13.26
2023-03-25T11:42:16.309Z,14.31
2023-03-25T11:44:52.582Z,15.28
2023-03-25T11:47:28.787Z,16.00
2023-03-25T11:49:57.545Z,16.04
2023-03-25T11:52:33.503Z,16.40
2023-03-25T11:55:03.140Z,16.74
2023-03-25T11:57:40.902Z,17.25
2023-03-25T12:00:31.697Z,17.49
2023-03-25T12:03:20.170Z,17.87
2023-03-25T12:06:01.732Z,17.82
2023-03-25T12:08:44.708Z,17.57
2023-03-25T12:11:19.736Z,18.37
2023-03-25T12:14:11.574Z,18.63
2023-03-25T12:16:51.496Z,18.84
2023-03-25T12:19:35.687Z,18.49
2023-03-25T12:22:20.107Z,18.29
2023-03-25T12:25:08.465Z,18.44
2023-03-25T12:27:58.542Z,18.62
2023-03-25T12:30:53.993Z,19.34
2023-03-25T12:33:48.122Z,18.60
2023-03-25T12:36:40.517Z,18.11
2023-03-25T12:39:43.774Z,16.86
2023-03-25T12:42:34.004Z,15.62
2023-03-25T12:45:25.491Z,14.58
2023-03-25T12:48:02.991Z,14.71
2023-03-25T12:50:49.733Z,15.63
2023-03-25T12:53:41.758Z,15.58
2023-03-25T12:56:43.827Z,15.31
2023-03-25T12:59:49.544Z,14.65
2023-03-25T13:02:49.307Z,14.07
2023-03-25T13:05:24.930Z,13.82
2023-03-25T13:07:59.580Z,13.77
2023-03-25T13:10:37.352Z,14.07
2023-03-25T13:13:14.177Z,14.32
2023-03-25T13:15:48.972Z,14.43
2023-03-25T13:18:25.287Z,14.81
2023-03-25T13:21:09.126Z,14.95
2023-03-25T13:23:46.440Z,15.22
2023-03-25T13:26:23.215Z,15.23
2023-03-25T13:28:58.305Z,15.06
2023-03-25T13:31:32.411Z,15.27
2023-03-25T13:34:22.879Z,15.47
2023-03-25T13:37:08.432Z,15.62
2023-03-25T13:39:53.949Z,15.76
2023-03-25T13:42:32.812Z,15.66
2023-03-25T13:45:05.445Z,15.39
2023-03-25T13:47:43.583Z,15.58
2023-03-25T13:50:25.546Z,15.69
2023-03-25T13:53:04.652Z,15.74
2023-03-25T13:55:40.861Z,15.92
2023-03-25T13:59:02.300Z,16.04
2023-03-25T14:02:29.049Z,16.08
2023-03-25T14:05:33.559Z,15.63
2023-03-25T14:08:40.040Z,15.49
2023-03-25T14:11:25.526Z,15.09
2023-03-25T14:14:01.868Z,14.97
2023-03-25T14:16:37.689Z,14.92
2023-03-25T14:19:14.397Z,14.79
2023-03-25T14:21:48.676Z,15.04
2023-03-25T14:24:26.490Z,15.13
2023-03-25T14:27:00.713Z,15.10
2023-03-25T14:29:40.508Z,15.03
2023-03-25T14:32:36.519Z,14.74
2023-03-25T14:35:59.014Z,13.22
2023-03-25T14:38:53.843Z,11.93
2023-03-25T14:42:01.852Z,11.52
2023-03-25T14:44:34.264Z,11.34
2023-03-25T14:47:28.756Z,11.30
2023-03-25T14:50:07.203Z,11.22
2023-03-25T14:52:43.739Z,11.21
2023-03-25T14:55:20.260Z,11.21
2023-03-25T14:57:52.593Z,11.27
2023-03-25T15:00:29.840Z,11.32
2023-03-25T15:03:06.678Z,11.56
2023-03-25T15:05:38.360Z,11.61
2023-03-25T15:08:18.081Z,11.84
2023-03-25T15:10:52.814Z,12.08
2023-03-25T15:13:28.706Z,12.21
2023-03-25T15:16:04.307Z,12.30
2023-03-25T15:19:15.078Z,12.42
2023-03-25T15:22:20.369Z,12.16
2023-03-25T15:25:01.300Z,12.11
2023-03-25T15:28:11.003Z,11.96
2023-03-25T15:31:20.152Z,11.83
2023-03-25T15:34:16.827Z,11.72
2023-03-25T15:37:08.105Z,11.66
2023-03-25T15:39:55.831Z,11.64
2023-03-25T15:42:51.554Z,11.64
2023-03-25T15:45:42.445Z,11.59
2023-03-25T15:48:52.689Z,11.67
2023-03-25T15:51:51.732Z,11.59
2023-03-25T15:54:43.111Z,11.60
2023-03-25T15:57:25.696Z,11.55
2023-03-25T16:00:09.565Z,11.51
2023-03-25T16:02:50.932Z,11.43
2023-03-25T16:05:23.864Z,11.37
2023-03-25T16:07:53.999Z,11.36
2023-03-25T16:10:32.478Z,11.24
2023-03-25T16:13:05.091Z,11.36
2023-03-25T16:15:37.543Z,11.41
2023-03-25T16:18:11.869Z,11.42
2023-03-25T16:20:42.364Z,11.44
2023-03-25T16:23:21.642Z,11.48
2023-03-25T16:25:53.989Z,11.42
2023-03-25T16:28:29.838Z,11.39
2023-03-25T16:30:58.587Z,11.48
2023-03-25T16:33:31.038Z,11.46
2023-03-25T16:36:06.286Z,11.36
2023-03-25T16:38:35.574Z,11.25
2023-03-25T16:41:12.517Z,11.28
2023-03-25T16:43:42.253Z,11.24
2023-03-25T16:46:15.996Z,11.30
2023-03-25T16:48:53.223Z,11.18
2023-03-25T16:51:29.379Z,11.18
2023-03-25T16:54:00.399Z,11.07
2023-03-25T16:56:32.350Z,11.00
2023-03-25T16:59:06.450Z,10.89
2023-03-25T17:01:39.588Z,10.76
2023-03-25T17:04:19.028Z,10.74
2023-03-25T17:06:54.558Z,10.66
2023-03-25T17:09:34.643Z,10.54
2023-03-25T17:12:11.040Z,10.55
2023-03-25T17:14:44.858Z,10.61
2023-03-25T17:17:34.940Z,10.63
2023-03-25T17:20:10.078Z,10.59
2023-03-25T17:22:41.276Z,10.39
2023-03-25T17:25:27.882Z,10.42
2023-03-25T17:28:01.035Z,10.44
2023-03-25T17:30:42.815Z,10.39
2023-03-25T17:33:15.633Z,10.10
2023-03-25T17:35:47.854Z,10.13
2023-03-25T17:38:28.491Z,10.15
2023-03-25T17:41:03.529Z,10.04
2023-03-25T17:43:36.659Z,9.98
2023-03-25T17:46:07.945Z,9.92
2023-03-25T17:48:37.337Z,9.92
2023-03-25T17:51:06.676Z,9.85
2023-03-25T17:53:36.710Z,9.88
2023-03-25T17:56:06.817Z,9.87
2023-03-25T17:58:35.715Z,9.73
2023-03-25T18:01:04.781Z,9.79
2023-03-25T18:03:36.145Z,9.79
2023-03-25T18:06:05.486Z,9.70
2023-03-25T18:08:35.836Z,9.70
2023-03-25T18:11:04.800Z,9.73
2023-03-25T18:13:33.578Z,9.57
2023-03-25T18:16:02.730Z,9.59
2023-03-25T18:18:32.072Z,9.58
2023-03-25T18:21:03.777Z,9.43
2023-03-25T18:23:32.927Z,9.38
2023-03-25T18:26:04.906Z,9.34
2023-03-25T18:28:36.267Z,9.42
2023-03-25T18:31:06.264Z,9.32
2023-03-25T18:33:35.218Z,9.42
2023-03-25T18:36:04.212Z,9.33
2023-03-25T18:38:34.345Z,9.33
2023-03-25T18:41:05.269Z,9.35
2023-03-25T18:43:34.338Z,9.42
2023-03-25T18:46:04.373Z,9.50
2023-03-25T18:48:33.779Z,9.49
2023-03-25T18:51:02.781Z,9.56
2023-03-25T18:53:31.858Z,9.59
2023-03-25T18:56:04.950Z,9.57
2023-03-25T18:58:37.265Z,9.58
2023-03-25T19:01:07.756Z,9.57
2023-03-25T19:03:41.900Z,9.52
2023-03-25T19:06:14.256Z,9.58
2023-03-25T19:08:44.556Z,9.62
2023-03-25T19:11:21.867Z,9.59
2023-03-25T19:14:04.386Z,9.58
2023-03-25T19:16:33.600Z,9.54
2023-03-25T19:19:12.264Z,9.50
2023-03-25T19:21:43.870Z,9.56
2023-03-25T19:24:13.585Z,9.59
2023-03-25T19:26:45.072Z,9.61
2023-03-25T19:29:17.574Z,9.61
2023-03-25T19:31:47.648Z,9.63
2023-03-25T19:34:18.284Z,9.68
2023-03-25T19:36:48.437Z,9.70
2023-03-25T19:39:18.964Z,9.76
2023-03-25T19:41:51.735Z,9.75
2023-03-25T19:44:21.793Z,9.78
2023-03-25T19:46:51.348Z,9.77
2023-03-25T19:49:36.414Z,9.70
2023-03-25T19:52:09.945Z,9.65
2023-03-25T19:54:45.283Z,9.54
2023-03-25T19:57:18.102Z,9.42
2023-03-25T19:59:48.397Z,9.34
2023-03-25T20:02:20.066Z,9.37
2023-03-25T20:04:50.830Z,9.46
2023-03-25T20:07:21.799Z,9.53
2023-03-25T20:09:55.348Z,9.61
2023-03-25T20:12:40.019Z,9.65
2023-03-25T20:15:21.599Z,9.61
2023-03-25T20:18:19.187Z,9.64
2023-03-25T20:20:54.502Z,9.70
2023-03-25T20:23:30.932Z,9.71
2023-03-25T20:26:12.926Z,9.67
2023-03-25T20:28:46.705Z,9.62
2023-03-25T20:31:26.204Z,9.61
2023-03-25T20:34:15.250Z,9.55
2023-03-25T20:36:44.502Z,9.58
2023-03-25T20:39:16.573Z,9.55
2023-03-25T20:41:46.111Z,9.47
2023-03-25T20:44:16.808Z,9.47
2023-03-25T20:46:46.927Z,9.45
2023-03-25T20:49:27.404Z,9.35
2023-03-25T20:51:57.778Z,9.28
2023-03-25T20:54:37.419Z,9.27
2023-03-25T20:57:07.675Z,9.26
2023-03-25T20:59:38.052Z,9.15
2023-03-25T21:02:06.984Z,9.20
2023-03-25T21:04:37.012Z,9.20
2023-03-25T21:07:07.779Z,9.21
2023-03-25T21:09:54.799Z,9.01
2023-03-25T21:12:32.874Z,9.01
2023-03-25T21:15:13.218Z,8.97
2023-03-25T21:17:42.480Z,8.95
2023-03-25T21:20:13.067Z,8.93
2023-03-25T21:22:44.574Z,8.87
2023-03-25T21:25:16.965Z,8.74
2023-03-25T21:27:46.866Z,8.82
2023-03-25T21:30:17.550Z,8.86
2023-03-25T21:32:46.203Z,8.93
2023-03-25T21:35:14.959Z,8.88
2023-03-25T21:37:44.272Z,8.86
2023-03-25T21:40:14.705Z,8.90
2023-03-25T21:42:46.240Z,8.87
2023-03-25T21:45:18.557Z,8.86
2023-03-25T21:47:53.579Z,8.94
2023-03-25T21:50:23.129Z,8.85
2023-03-25T21:52:52.036Z,8.90
2023-03-25T21:55:22.426Z,8.89
2023-03-25T21:57:51.536Z,8.86
2023-03-25T22:00:24.016Z,8.86
2023-03-25T22:02:58.712Z,8.92
2023-03-25T22:05:32.230Z,8.92
2023-03-25T22:08:01.530Z,8.92
2023-03-25T22:10:30.807Z,8.98
2023-03-25T22:13:00.252Z,9.00
2023-03-25T22:15:31.891Z,8.98
2023-03-25T22:18:00.733Z,8.97
2023-03-25T22:20:29.532Z,9.01
2023-03-25T22:22:58.170Z,8.98
2023-03-25T22:25:26.893Z,8.97
2023-03-25T22:27:55.634Z,9.00
2023-03-25T22:30:24.543Z,9.00
2023-03-25T22:32:54.699Z,9.02
2023-03-25T22:35:23.897Z,9.03
2023-03-25T22:37:55.496Z,8.99
2023-03-25T22:40:25.287Z,9.05
2023-03-25T22:42:54.299Z,9.06
2023-03-25T22:45:23.889Z,9.09
2023-03-25T22:47:54.329Z,9.19
2023-03-25T22:50:23.074Z,9.19
2023-03-25T22:52:51.712Z,9.26
2023-03-25T22:55:20.536Z,9.26
2023-03-25T22:57:49.257Z,9.27
2023-03-25T23:00:19.703Z,9.20
2023-03-25T23:02:49.352Z,9.18
2023-03-25T23:05:21.721Z,9.22
2023-03-25T23:07:50.499Z,9.23
2023-03-25T23:10:20.287Z,9.31
2023-03-25T23:12:50.492Z,9.33
2023-03-25T23:15:19.821Z,9.34
2023-03-25T23:17:49.561Z,9.29
2023-03-25T23:20:20.073Z,9.22
2023-03-25T23:22:49.072Z,9.21
2023-03-25T23:25:17.979Z,9.23
2023-03-25T23:27:47.891Z,9.23
2023-03-25T23:30:19.772Z,9.22
2023-03-25T23:32:49.180Z,9.11
2023-03-25T23:35:21.414Z,9.14
2023-03-25T23:37:53.581Z,9.13
2023-03-25T23:40:23.008Z,9.09
2023-03-25T23:42:51.930Z,9.14
2023-03-25T23:45:20.709Z,9.16
2023-03-25T23:47:49.497Z,9.16
2023-03-25T23:50:19.894Z,9.11
2023-03-25T23:52:48.613Z,9.16
2023-03-25T23:55:17.926Z,9.09
2023-03-25T23:57:46.554Z,9.16
